Time;durP1;ratioP1;P1;durP2;ratioP2;P2;SDS_P1;SDS_P2;PMS_P1;PMS_P2;Temp;Humidity;BMP_temperature;BMP_pressure;BME280_temperature;BME280_humidity;BME280_pressure;Samples;Min_cycle;Max_cycle;Signal;HPM_P1;HPM_P2
2023/04/07 00:02:41;;;;;;;;;;;16.80;61.80;;;;;;10150698;28;94702;-67
2023/04/07 00:07:45;;;;;;;;;;;16.80;61.80;;;;;;10166402;28;92465;-67
2023/04/07 00:12:57;;;;;;;;;;;16.80;61.80;;;;;;10166279;28;94941;-66
2023/04/07 00:17:59;;;;;;;;;;;16.70;61.70;;;;;;10172162;28;92634;-67
2023/04/07 00:23:01;;;;;;;;;;;16.70;61.70;;;;;;10156709;28;93842;-67
2023/04/07 00:28:02;;;;;;;;;;;16.70;61.80;;;;;;10173067;28;92999;-67
2023/04/07 00:33:04;;;;;;;;;;;16.70;61.70;;;;;;10171020;28;95264;-67
2023/04/07 00:38:10;;;;;;;;;;;16.70;61.70;;;;;;10155820;28;94444;-66
2023/04/07 00:43:12;;;;;;;;;;;16.70;61.70;;;;;;10154720;28;93267;-67
2023/04/07 00:48:14;;;;;;;;;;;16.70;62.60;;;;;;10172294;28;93463;-66
2023/04/07 00:53:15;;;;;;;;;;;16.70;61.60;;;;;;10172120;28;93404;-67
2023/04/07 00:58:17;;;;;;;;;;;16.70;61.60;;;;;;10170734;28;93571;-67
2023/04/07 01:03:25;;;;;;;;;;;16.70;61.60;;;;;;10171625;28;92743;-66
2023/04/07 01:08:45;;;;;;;;;;;16.70;61.60;;;;;;10173107;28;93885;-67
2023/04/07 01:13:49;;;;;;;;;;;16.70;61.60;;;;;;10171286;28;93244;-66
2023/04/07 01:18:53;;;;;;;;;;;16.70;61.60;;;;;;10154516;28;93467;-68
2023/04/07 01:24:13;;;;;;;;;;;16.60;61.50;;;;;;10168225;28;95850;-66
2023/04/07 01:29:33;;;;;;;;;;;16.60;61.60;;;;;;10169294;28;93574;-67
2023/04/07 01:34:35;;;;;;;;;;;16.60;61.50;;;;;;10170306;28;93304;-67
2023/04/07 01:39:37;;;;;;;;;;;16.60;61.50;;;;;;10170424;28;93477;-66
2023/04/07 01:44:39;;;;;;;;;;;16.60;61.50;;;;;;10170404;28;94358;-66
2023/04/07 01:49:42;;;;;;;;;;;16.60;61.50;;;;;;10170578;28;94722;-66
2023/04/07 01:54:44;;;;;;;;;;;16.60;61.50;;;;;;10170131;28;94977;-67
2023/04/07 01:59:46;;;;;;;;;;;16.60;61.50;;;;;;10171113;28;93630;-67
2023/04/07 02:04:53;;;;;;;;;;;16.60;61.40;;;;;;10169544;28;93461;-67
2023/04/07 02:09:56;;;;;;;;;;;16.60;61.40;;;;;;10169751;28;93101;-67
2023/04/07 02:14:59;;;;;;;;;;;16.60;61.40;;;;;;10167813;28;96946;-67
2023/04/07 02:20:02;;;;;;;;;;;16.60;61.40;;;;;;10170407;28;93109;-67
2023/04/07 02:25:22;;;;;;;;;;;16.50;61.40;;;;;;10168774;28;92904;-67
2023/04/07 02:30:24;;;;;;;;;;;16.50;61.40;;;;;;10169601;28;94448;-67
2023/04/07 02:35:26;;;;;;;;;;;16.50;61.40;;;;;;10170640;28;93061;-66
2023/04/07 02:40:28;;;;;;;;;;;16.50;61.30;;;;;;10151121;28;93407;-68
2023/04/07 02:45:30;;;;;;;;;;;16.50;61.40;;;;;;10152155;28;93471;-67
2023/04/07 02:50:32;;;;;;;;;;;16.50;61.40;;;;;;10169975;28;93010;-67
2023/04/07 02:55:33;;;;;;;;;;;16.50;61.40;;;;;;10168064;28;93568;-68
2023/04/07 03:00:37;;;;;;;;;;;16.50;61.30;;;;;;10168019;28;113993;-66
2023/04/07 03:05:38;;;;;;;;;;;16.50;61.40;;;;;;10148734;28;96815;-68
2023/04/07 03:10:40;;;;;;;;;;;16.50;61.30;;;;;;10168388;28;93612;-67
2023/04/07 03:15:42;;;;;;;;;;;16.50;61.30;;;;;;10168357;28;94548;-62
2023/04/07 03:20:47;;;;;;;;;;;16.50;61.30;;;;;;10167140;28;92999;-62
2023/04/07 03:25:48;;;;;;;;;;;16.50;61.30;;;;;;10149828;28;93118;-67
2023/04/07 03:30:50;;;;;;;;;;;16.50;61.30;;;;;;10149555;28;93284;-67
2023/04/07 03:35:52;;;;;;;;;;;16.50;61.30;;;;;;10167555;28;93413;-68
2023/04/07 03:40:53;;;;;;;;;;;16.40;61.30;;;;;;10168837;28;93692;-67
2023/04/07 05:03:57;;;;;;;;;;;16.60;61.00;;;;;;10109704;28;95339;-64
2023/04/07 05:09:00;;;;;;;;;;;16.70;60.90;;;;;;10115341;28;93964;-64
2023/04/07 05:14:02;;;;;;;;;;;16.70;60.90;;;;;;10131749;28;94240;-64
2023/04/07 05:19:03;;;;;;;;;;;16.80;61.00;;;;;;10132061;28;93481;-64
2023/04/07 05:24:05;;;;;;;;;;;16.80;61.00;;;;;;10132479;28;92861;-64
2023/04/07 05:29:10;;;;;;;;;;;16.80;61.00;;;;;;10132731;28;93968;-64
2023/04/07 05:34:11;;;;;;;;;;;16.80;61.10;;;;;;10132507;28;93245;-64
2023/04/07 05:39:13;;;;;;;;;;;16.80;61.80;;;;;;10132077;28;92651;-65
2023/04/07 05:44:15;;;;;;;;;;;16.80;61.70;;;;;;10128966;28;92884;-64
2023/04/07 05:49:17;;;;;;;;;;;16.80;61.90;;;;;;10149152;28;93470;-63
2023/04/07 05:54:21;;;;;;;;;;;16.80;62.00;;;;;;10167251;28;95899;-63
2023/04/07 05:59:23;;;;;;;;;;;16.90;62.30;;;;;;10169826;28;94947;-60
2023/04/07 06:04:24;;;;;;;;;;;16.80;62.90;;;;;;10168407;28;93931;-62
2023/04/07 06:09:26;;;;;;;;;;;16.90;63.10;;;;;;10168797;28;93843;-62
2023/04/07 06:14:28;;;;;;;;;;;16.90;63.30;;;;;;10169448;28;94872;-61
2023/04/07 06:19:31;;;;;;;;;;;17.00;63.70;;;;;;10168646;28;93726;-62
2023/04/07 06:24:33;;;;;;;;;;;17.10;63.80;;;;;;10169366;28;94464;-62
2023/04/07 06:29:35;;;;;;;;;;;17.20;63.70;;;;;;10169268;28;93702;-63
2023/04/07 06:34:37;;;;;;;;;;;17.30;63.40;;;;;;10151398;28;92904;-64
2023/04/07 06:39:38;;;;;;;;;;;17.50;62.90;;;;;;10169013;28;94481;-64
2023/04/07 06:44:40;;;;;;;;;;;17.60;62.40;;;;;;10127894;28;96832;-64
2023/04/07 06:49:42;;;;;;;;;;;17.80;62.30;;;;;;10128033;28;94515;-64
2023/04/07 06:54:43;;;;;;;;;;;17.90;62.10;;;;;;10129053;28;93300;-65
2023/04/07 06:59:46;;;;;;;;;;;18.00;61.60;;;;;;10137386;28;94473;-64
2023/04/07 07:04:47;;;;;;;;;;;18.00;62.10;;;;;;10129409;28;92611;-64
2023/04/07 07:09:49;;;;;;;;;;;18.10;62.40;;;;;;10128436;28;93643;-65
2023/04/07 07:14:51;;;;;;;;;;;18.00;62.50;;;;;;10128879;28;93905;-65
2023/04/07 07:19:53;;;;;;;;;;;18.00;62.50;;;;;;10095021;28;92864;-63
2023/04/07 07:24:55;;;;;;;;;;;18.00;62.50;;;;;;10110290;28;93634;-65
2023/04/07 07:29:56;;;;;;;;;;;18.00;62.90;;;;;;10128250;28;94505;-65
2023/04/07 07:34:58;;;;;;;;;;;17.90;62.00;;;;;;10108519;28;95161;-65
2023/04/07 07:40:00;;;;;;;;;;;17.90;61.90;;;;;;10128104;28;94625;-65
2023/04/07 07:45:02;;;;;;;;;;;17.90;62.00;;;;;;10127019;28;93251;-64
2023/04/07 07:50:04;;;;;;;;;;;17.90;61.90;;;;;;10126792;28;93692;-64
2023/04/07 07:55:06;;;;;;;;;;;17.90;61.80;;;;;;10127118;28;93870;-65
2023/04/07 08:00:08;;;;;;;;;;;17.80;61.80;;;;;;10127515;28;94628;-65
2023/04/07 08:05:10;;;;;;;;;;;17.80;61.90;;;;;;10127100;28;94389;-65
2023/04/07 08:10:12;;;;;;;;;;;17.80;61.90;;;;;;10127859;28;93709;-65
2023/04/07 08:15:13;;;;;;;;;;;17.90;61.70;;;;;;10109043;28;93520;-64
2023/04/07 08:20:15;;;;;;;;;;;17.90;61.60;;;;;;10126975;28;94332;-64
2023/04/07 08:25:18;;;;;;;;;;;17.90;61.50;;;;;;10124304;28;96896;-64
2023/04/07 08:30:21;;;;;;;;;;;17.90;61.50;;;;;;10126237;28;92478;-64
2023/04/07 08:35:23;;;;;;;;;;;18.00;64.60;;;;;;10127304;28;93912;-64
2023/04/07 08:40:24;;;;;;;;;;;18.00;62.80;;;;;;10132720;28;93416;-64
2023/04/07 08:45:26;;;;;;;;;;;18.10;62.40;;;;;;10133879;28;94690;-65
2023/04/07 08:50:28;;;;;;;;;;;18.10;62.10;;;;;;10132943;28;94055;-63
2023/04/07 08:55:30;;;;;;;;;;;18.10;62.10;;;;;;10116033;28;94244;-64
2023/04/07 09:00:32;;;;;;;;;;;18.10;62.10;;;;;;10135215;28;92693;-65
2023/04/07 09:05:34;;;;;;;;;;;18.10;62.00;;;;;;10116345;28;94476;-65
2023/04/07 09:10:36;;;;;;;;;;;18.10;62.10;;;;;;10132025;28;93263;-65
2023/04/07 09:15:38;;;;;;;;;;;18.00;62.10;;;;;;10130550;28;96215;-64
2023/04/07 09:21:00;;;;;;;;;;;18.00;62.20;;;;;;10114789;28;93688;-65
2023/04/07 09:26:19;;;;;;;;;;;18.00;62.40;;;;;;10131436;28;93433;-65
2023/04/07 09:31:21;;;;;;;;;;;18.00;62.80;;;;;;10168668;28;94390;-64
2023/04/07 09:36:23;;;;;;;;;;;18.00;62.40;;;;;;10153326;28;93544;-64
2023/04/07 09:41:26;;;;;;;;;;;18.00;62.40;;;;;;10170136;28;94458;-64
2023/04/07 09:46:28;;;;;;;;;;;18.00;62.50;;;;;;10169237;28;93457;-66
2023/04/07 09:51:30;;;;;;;;;;;18.00;62.90;;;;;;10171197;28;93934;-66
2023/04/07 09:56:32;;;;;;;;;;;18.00;62.90;;;;;;10170094;28;93541;-66
2023/04/07 10:01:34;;;;;;;;;;;18.00;62.90;;;;;;10170902;28;94629;-65
2023/04/07 10:06:36;;;;;;;;;;;18.00;63.30;;;;;;10167715;28;95835;-66
2023/04/07 10:11:39;;;;;;;;;;;18.00;63.40;;;;;;10170386;28;94031;-66
2023/04/07 10:16:42;;;;;;;;;;;18.00;63.50;;;;;;10169415;28;93962;-63
2023/04/07 10:21:44;;;;;;;;;;;18.00;63.70;;;;;;10169489;28;93641;-63
2023/04/07 10:26:49;;;;;;;;;;;18.00;63.80;;;;;;10169921;28;94308;-63
2023/04/07 10:31:51;;;;;;;;;;;18.00;63.90;;;;;;10168784;28;94192;-63
2023/04/07 10:37:13;;;;;;;;;;;18.00;64.00;;;;;;10152339;28;93660;-63
2023/04/07 10:42:33;;;;;;;;;;;17.90;64.00;;;;;;10169153;28;93060;-62
2023/04/07 10:47:55;;;;;;;;;;;17.90;64.20;;;;;;10168336;28;94284;-63
2023/04/07 10:53:08;;;;;;;;;;;17.90;64.40;;;;;;10168299;28;93621;-63
2023/04/07 10:58:23;;;;;;;;;;;17.90;66.10;;;;;;10165608;28;95834;-64
2023/04/07 11:03:25;;;;;;;;;;;17.90;65.90;;;;;;10167995;28;93676;-64
2023/04/07 11:08:49;;;;;;;;;;;17.90;66.00;;;;;;10167703;28;93620;-64
2023/04/07 11:13:50;;;;;;;;;;;17.90;65.40;;;;;;10167163;28;93745;-63
2023/04/07 11:18:56;;;;;;;;;;;17.80;65.30;;;;;;10168674;28;93504;-65
2023/04/07 11:23:57;;;;;;;;;;;17.80;65.20;;;;;;10168279;28;94610;-65
2023/04/07 11:28:59;;;;;;;;;;;17.80;65.00;;;;;;10166915;28;94433;-65
2023/04/07 11:34:03;;;;;;;;;;;17.70;64.70;;;;;;10151110;28;93772;-65
2023/04/07 11:39:16;;;;;;;;;;;17.70;64.80;;;;;;10167766;28;93509;-66
2023/04/07 11:44:18;;;;;;;;;;;17.70;64.80;;;;;;10167751;28;94281;-66
2023/04/07 11:49:20;;;;;;;;;;;17.70;64.60;;;;;;10164366;28;95852;-66
2023/04/07 11:54:22;;;;;;;;;;;17.70;64.50;;;;;;10167163;28;95710;-66
2023/04/07 11:59:24;;;;;;;;;;;17.70;64.40;;;;;;10150658;28;94398;-66
2023/04/07 12:04:26;;;;;;;;;;;17.70;64.20;;;;;;10165423;28;93693;-66
2023/04/07 12:09:33;;;;;;;;;;;17.60;64.10;;;;;;10166715;28;93757;-65
2023/04/07 12:14:35;;;;;;;;;;;17.60;64.20;;;;;;10171918;28;93444;-66
2023/04/07 12:19:38;;;;;;;;;;;17.60;64.20;;;;;;10173738;28;94124;-65
2023/04/07 12:24:40;;;;;;;;;;;17.50;64.00;;;;;;10174217;28;93715;-64
2023/04/07 12:29:42;;;;;;;;;;;17.50;64.00;;;;;;10174164;28;93665;-65
2023/04/07 12:34:44;;;;;;;;;;;17.50;64.00;;;;;;10172763;28;94458;-65
2023/04/07 12:39:46;;;;;;;;;;;17.40;64.00;;;;;;10170650;28;97803;-65
2023/04/07 12:44:48;;;;;;;;;;;17.40;63.90;;;;;;10172907;28;93429;-65
2023/04/07 12:49:49;;;;;;;;;;;17.40;64.00;;;;;;10172848;28;93478;-65
2023/04/07 12:54:52;;;;;;;;;;;17.40;63.90;;;;;;10173358;28;96632;-66
2023/04/07 12:59:54;;;;;;;;;;;17.50;63.80;;;;;;10155604;28;93455;-64
2023/04/07 13:04:56;;;;;;;;;;;17.50;63.70;;;;;;10172049;28;93864;-64
2023/04/07 13:09:57;;;;;;;;;;;17.50;63.70;;;;;;10173365;28;94417;-65
2023/04/07 13:14:59;;;;;;;;;;;17.50;63.80;;;;;;10171661;28;92710;-69
2023/04/07 13:20:02;;;;;;;;;;;17.50;63.70;;;;;;10169152;28;94015;-65
2023/04/07 13:25:04;;;;;;;;;;;17.60;65.60;;;;;;10170540;28;93484;-66
2023/04/07 13:30:06;;;;;;;;;;;17.60;65.50;;;;;;10168702;28;97630;-66
2023/04/07 13:35:08;;;;;;;;;;;17.70;65.50;;;;;;10171273;28;93497;-66
2023/04/07 13:40:11;;;;;;;;;;;17.70;65.20;;;;;;10154093;28;93115;-65
2023/04/07 13:45:13;;;;;;;;;;;17.70;65.00;;;;;;10114039;28;93697;-65
2023/04/07 13:50:14;;;;;;;;;;;17.70;65.70;;;;;;10130717;28;94484;-65
2023/04/07 13:55:19;;;;;;;;;;;17.70;64.50;;;;;;10131566;28;93693;-65
2023/04/07 14:00:20;;;;;;;;;;;17.70;64.40;;;;;;10130884;28;94501;-65
2023/04/07 14:05:22;;;;;;;;;;;17.70;64.50;;;;;;10112844;28;92532;-66
2023/04/07 14:10:24;;;;;;;;;;;17.60;64.40;;;;;;10130232;28;93972;-65
2023/04/07 14:15:26;;;;;;;;;;;17.70;66.60;;;;;;10112539;28;93625;-65
2023/04/07 14:20:28;;;;;;;;;;;17.70;67.40;;;;;;10127067;28;96455;-65
2023/04/07 14:25:30;;;;;;;;;;;17.70;66.40;;;;;;10129564;28;93400;-65
2023/04/07 14:30:35;;;;;;;;;;;17.70;67.20;;;;;;10128967;28;93263;-66
2023/04/07 14:35:36;;;;;;;;;;;17.70;66.20;;;;;;10111586;28;93137;-65
2023/04/07 14:40:39;;;;;;;;;;;17.70;66.20;;;;;;10129413;28;93402;-66
2023/04/07 14:45:40;;;;;;;;;;;17.70;66.20;;;;;;10111872;28;93175;-66
2023/04/07 14:50:42;;;;;;;;;;;17.70;66.30;;;;;;10128776;28;94579;-66
2023/04/07 14:55:44;;;;;;;;;;;17.70;66.40;;;;;;10129910;28;92543;-65
2023/04/07 15:00:46;;;;;;;;;;;17.70;66.40;;;;;;10128893;28;94441;-66
2023/04/07 15:05:48;;;;;;;;;;;17.70;66.40;;;;;;10128401;28;93248;-66
2023/04/07 15:10:49;;;;;;;;;;;17.70;66.60;;;;;;10126099;28;95863;-66
2023/04/07 15:15:51;;;;;;;;;;;17.70;66.70;;;;;;10129125;28;94804;-66
2023/04/07 15:20:53;;;;;;;;;;;17.70;66.80;;;;;;10110893;28;93500;-66
2023/04/07 15:25:56;;;;;;;;;;;17.70;66.70;;;;;;10128800;28;94566;-65
2023/04/07 15:30:58;;;;;;;;;;;17.70;66.80;;;;;;10111009;28;93137;-65
2023/04/07 15:36:00;;;;;;;;;;;17.70;66.70;;;;;;10127876;28;93639;-65
2023/04/07 15:41:02;;;;;;;;;;;17.70;66.80;;;;;;10127882;28;94684;-64
2023/04/07 15:46:03;;;;;;;;;;;17.70;66.70;;;;;;10130397;28;93592;-64
2023/04/07 15:51:05;;;;;;;;;;;17.80;66.70;;;;;;10140316;28;93144;-64
2023/04/07 15:56:07;;;;;;;;;;;18.00;66.80;;;;;;10140252;28;92594;-64
2023/04/07 16:01:08;;;;;;;;;;;18.10;66.10;;;;;;10139065;28;96856;-64
2023/04/07 16:06:10;;;;;;;;;;;18.20;67.70;;;;;;10124404;28;94514;-66
2023/04/07 16:11:12;;;;;;;;;;;18.40;69.10;;;;;;10140974;28;93974;-66
2023/04/07 16:16:13;;;;;;;;;;;18.50;69.00;;;;;;10123098;28;94484;-66
2023/04/07 16:21:15;;;;;;;;;;;18.60;71.00;;;;;;10141496;28;93572;-66
2023/04/07 16:26:17;;;;;;;;;;;18.70;71.40;;;;;;10140947;28;93485;-68
2023/04/07 16:31:18;;;;;;;;;;;18.70;71.30;;;;;;10138870;28;93462;-64
2023/04/07 16:36:20;;;;;;;;;;;18.70;71.60;;;;;;10139065;28;92716;-66
2023/04/07 16:41:22;;;;;;;;;;;18.60;70.20;;;;;;10138094;28;94050;-66
2023/04/07 16:46:27;;;;;;;;;;;18.60;70.40;;;;;;10121202;28;93007;-65
2023/04/07 16:51:30;;;;;;;;;;;18.60;70.20;;;;;;10136697;28;97117;-65
2023/04/07 16:56:32;;;;;;;;;;;18.60;69.80;;;;;;10138449;28;94273;-65
2023/04/07 17:01:33;;;;;;;;;;;18.50;69.70;;;;;;10114279;28;93511;-64
2023/04/07 17:06:35;;;;;;;;;;;18.50;69.70;;;;;;10132156;28;93619;-66
2023/04/07 17:11:39;;;;;;;;;;;18.40;69.20;;;;;;10131832;28;93491;-66
2023/04/07 17:16:41;;;;;;;;;;;18.40;68.90;;;;;;10114649;28;93313;-66
2023/04/07 17:21:43;;;;;;;;;;;18.30;68.80;;;;;;10131346;28;93197;-66
2023/04/07 17:26:48;;;;;;;;;;;18.20;68.80;;;;;;10132212;28;92658;-66
2023/04/07 17:31:49;;;;;;;;;;;18.20;68.90;;;;;;10131715;28;93254;-67
2023/04/07 17:36:51;;;;;;;;;;;18.10;68.90;;;;;;10131466;28;94352;-66
2023/04/07 17:41:53;;;;;;;;;;;18.10;68.90;;;;;;10110827;28;95271;-66
2023/04/07 17:46:55;;;;;;;;;;;18.10;68.90;;;;;;10132009;28;93443;-65
2023/04/07 17:51:56;;;;;;;;;;;18.20;68.80;;;;;;10131264;28;94510;-67
2023/04/07 17:56:59;;;;;;;;;;;18.10;68.70;;;;;;10130956;28;93978;-66
2023/04/07 18:02:08;;;;;;;;;;;18.10;68.80;;;;;;10129281;28;93797;-67
2023/04/07 18:07:12;;;;;;;;;;;18.10;68.90;;;;;;10129783;28;93669;-67
2023/04/07 18:12:13;;;;;;;;;;;18.10;68.80;;;;;;10129646;28;93527;-66
2023/04/07 18:17:15;;;;;;;;;;;18.20;68.80;;;;;;10130628;28;93164;-66
2023/04/07 18:22:17;;;;;;;;;;;18.20;68.80;;;;;;10129709;28;93411;-67
2023/04/07 18:27:22;;;;;;;;;;;18.20;68.90;;;;;;10129820;28;94354;-67
2023/04/07 18:32:24;;;;;;;;;;;18.20;68.80;;;;;;10127384;28;96048;-66
2023/04/07 18:37:28;;;;;;;;;;;18.20;68.90;;;;;;10129830;28;94450;-67
2023/04/07 18:42:29;;;;;;;;;;;18.20;68.90;;;;;;10129225;28;93066;-66
2023/04/07 18:47:31;;;;;;;;;;;18.20;68.70;;;;;;10129179;28;94562;-66
2023/04/07 18:52:33;;;;;;;;;;;18.30;68.80;;;;;;10129139;28;94138;-65
2023/04/07 18:57:34;;;;;;;;;;;18.30;70.30;;;;;;10129013;28;93174;-65
2023/04/07 19:02:42;;;;;;;;;;;18.30;70.10;;;;;;10127650;28;94639;-66
2023/04/07 19:07:44;;;;;;;;;;;18.30;70.20;;;;;;10129661;28;93756;-64
2023/04/07 19:12:46;;;;;;;;;;;18.30;69.80;;;;;;10129301;28;94781;-65
2023/04/07 19:17:48;;;;;;;;;;;18.30;69.40;;;;;;10127610;28;93435;-65
2023/04/07 19:22:50;;;;;;;;;;;18.30;69.20;;;;;;10124057;28;95922;-65
2023/04/07 19:27:52;;;;;;;;;;;18.30;69.00;;;;;;10128378;28;92915;-65
2023/04/07 19:32:54;;;;;;;;;;;18.20;68.90;;;;;;10111016;28;94459;-65
2023/04/07 19:37:55;;;;;;;;;;;18.20;69.50;;;;;;10127401;28;94432;-65
2023/04/07 19:42:57;;;;;;;;;;;18.20;69.50;;;;;;10127026;28;93262;-65
2023/04/07 19:47:59;;;;;;;;;;;18.20;69.40;;;;;;10125518;28;93138;-65
2023/04/07 19:53:00;;;;;;;;;;;18.20;69.30;;;;;;10127722;28;92809;-65
2023/04/07 19:58:02;;;;;;;;;;;18.20;69.30;;;;;;10125097;28;92856;-65
2023/04/07 20:03:04;;;;;;;;;;;18.20;69.30;;;;;;10124138;28;93479;-65
2023/04/07 20:08:06;;;;;;;;;;;18.10;68.90;;;;;;10140029;28;93542;-65
2023/04/07 20:13:08;;;;;;;;;;;18.20;69.20;;;;;;10123453;28;95796;-65
2023/04/07 20:18:10;;;;;;;;;;;18.20;69.00;;;;;;10125287;28;93594;-65
2023/04/07 20:23:14;;;;;;;;;;;18.20;69.00;;;;;;10125695;28;93630;-65
2023/04/07 20:28:16;;;;;;;;;;;18.20;69.10;;;;;;10109049;28;93591;-65
2023/04/07 20:33:18;;;;;;;;;;;18.10;69.10;;;;;;10128557;28;94407;-65
2023/04/07 20:38:20;;;;;;;;;;;18.10;69.30;;;;;;10115993;28;93487;-66
2023/04/07 20:43:22;;;;;;;;;;;18.10;69.30;;;;;;10132510;28;93259;-66
2023/04/07 20:48:24;;;;;;;;;;;18.10;69.40;;;;;;10114710;28;92729;-66
2023/04/07 20:53:26;;;;;;;;;;;18.10;69.30;;;;;;10131352;28;93457;-65
2023/04/07 20:58:28;;;;;;;;;;;18.10;69.30;;;;;;10157857;28;93742;-65
2023/04/07 21:03:29;;;;;;;;;;;18.00;69.10;;;;;;10168743;28;97039;-66
2023/04/07 21:08:31;;;;;;;;;;;18.00;69.20;;;;;;10154682;28;93574;-65
2023/04/07 21:13:33;;;;;;;;;;;18.00;69.10;;;;;;10172471;28;94545;-65
2023/04/07 21:18:35;;;;;;;;;;;17.90;68.70;;;;;;10153577;28;93250;-65
2023/04/07 21:23:37;;;;;;;;;;;17.90;68.60;;;;;;10172352;28;94412;-65
2023/04/07 21:28:41;;;;;;;;;;;17.80;68.50;;;;;;10171816;28;94448;-65
2023/04/07 21:33:43;;;;;;;;;;;17.80;68.40;;;;;;10170586;28;93366;-65
2023/04/07 21:38:44;;;;;;;;;;;17.80;68.50;;;;;;10171272;28;93874;-65
2023/04/07 21:43:46;;;;;;;;;;;17.80;68.30;;;;;;10169489;28;94697;-66
2023/04/07 21:48:48;;;;;;;;;;;17.70;68.10;;;;;;10169126;28;92974;-65
2023/04/07 21:53:51;;;;;;;;;;;17.70;68.00;;;;;;10150800;28;95851;-66
2023/04/07 21:58:53;;;;;;;;;;;17.60;67.90;;;;;;10153372;28;94875;-66
2023/04/07 22:03:54;;;;;;;;;;;17.70;67.90;;;;;;10152426;28;93469;-66
2023/04/07 22:08:56;;;;;;;;;;;17.60;68.80;;;;;;10170214;28;94589;-66
2023/04/07 22:14:03;;;;;;;;;;;17.50;67.80;;;;;;10169649;28;93115;-66
2023/04/07 22:19:04;;;;;;;;;;;17.50;67.80;;;;;;10169507;28;93299;-65
2023/04/07 22:24:06;;;;;;;;;;;17.50;67.60;;;;;;10169561;28;94533;-65
2023/04/07 22:29:08;;;;;;;;;;;17.50;67.50;;;;;;10170395;28;94029;-65
2023/04/07 22:34:10;;;;;;;;;;;17.50;67.30;;;;;;10168693;28;94941;-65
2023/04/07 22:39:11;;;;;;;;;;;17.40;67.20;;;;;;10168728;28;93435;-65
2023/04/07 22:44:13;;;;;;;;;;;17.40;67.30;;;;;;10166619;28;96112;-65
2023/04/07 22:49:15;;;;;;;;;;;17.40;67.20;;;;;;10168345;28;94478;-65
2023/04/07 22:54:17;;;;;;;;;;;17.40;67.20;;;;;;10167943;28;93565;-66
2023/04/07 22:59:19;;;;;;;;;;;17.40;67.10;;;;;;10169916;28;94548;-65
2023/04/07 23:04:21;;;;;;;;;;;17.40;67.10;;;;;;10168689;28;93969;-65
2023/04/07 23:09:23;;;;;;;;;;;17.30;67.10;;;;;;10167261;28;93520;-65
2023/04/07 23:14:25;;;;;;;;;;;17.30;66.90;;;;;;10151134;28;93423;-66
2023/04/07 23:19:26;;;;;;;;;;;17.30;66.80;;;;;;10169118;28;93501;-66
2023/04/07 23:24:28;;;;;;;;;;;17.30;66.70;;;;;;10168178;28;94251;-66
2023/04/07 23:29:30;;;;;;;;;;;17.30;66.50;;;;;;10168096;28;94335;-66
2023/04/07 23:34:31;;;;;;;;;;;17.30;66.50;;;;;;10166051;28;95801;-66
2023/04/07 23:39:33;;;;;;;;;;;17.30;66.40;;;;;;10167671;28;93402;-66
2023/04/07 23:44:35;;;;;;;;;;;17.30;66.30;;;;;;10168294;28;94199;-66
2023/04/07 23:49:36;;;;;;;;;;;17.30;66.30;;;;;;10166925;28;94363;-66
2023/04/07 23:54:38;;;;;;;;;;;17.20;66.10;;;;;;10167098;28;93318;-66
2023/04/07 23:59:40;;;;;;;;;;;17.20;66.10;;;;;;10167056;28;92969;-66
